Terminal Aerodrome Forecast
Issued by NWS

Home | Current Version | Previous Version | Graphics & Text | Print | Product List | Glossary On
Versions: 1 2 3 4 5 6 7 8 9 10 11 12 13 14 15
000
FTUS45 KGGW 201126
TAFGDV
TAF
KGDV 201126Z 2012/2112 22008KT P6SM FEW250
     FM210000 28005KT P6SM SCT150
     FM210200 29013G21KT P6SM SCT120
     FM210400 29022G30KT P6SM BKN070
     FM210800 28018KT P6SM SCT070=

USA.gov is the U.S. government's official web portal to all federal, state and local government web resources and services.